Aérodrome :
LOGIN :

S'inscrire | Disclaimer

   EN    FR    IT 

 










Légende :    VFR   VFR Marginal   IFR   IFR Intensif   IFR Très Intensif
Visi : 
Plafond : 
>= 8 km
>= 3000ft
5 à 8 km
1000 à 3000 ft
1500m à 5 km
500 à 1000 ft
800 à 1500m
200 à 500 ft
< 800m
< 200 ft
Symboles :   Orages  Brouillard  Fortes neiges  Fortes précipitations  Vent > 20 kt
SIGMETs :   Divers  Orages  Givrage  Turbulence  Onde Orograph.  Cendres Volcan.






- Altitude de l'aérodrome : 935 ft


EBFS - Florennes

DERNIER METAR :
  • 131203Z 19007KT 9999 FEW005 BKN007 06/05 Q1002 GRN GRN

METARs EXPIRÉS :
  • 131125Z 19008KT 9999 SCT005 BKN007 06/05 Q1002 YLO YLO BECMG GRN
  • 131111Z 19008KT 9999 SCT005 BKN007 05/04 Q1002 YLO YLO BECMG GRN
  • 131055Z 19009KT 9999 SCT004 BKN006 05/05 Q1002 YLO YLO
  • 131025Z 19008KT 8000 FEW002 BKN003 05/05 Q1002 YLO YLO
  • 131022Z 19008KT 8000 FEW002 BKN003 05/05 Q1002 YLO YLO
  • 130955Z 20007KT 4000 BR SCT002 BKN003 05/05 Q1002 AMB YLO TEMPO AMB
  • 130855Z 19009KT 2400 BR SCT002 BKN003 04/04 Q1002 AMB YLO TEMPO AMB

TAF TAF EBFS
Valide du 13 à 10h jusqu'au 13 à 19h UTC


131012Z 1310/1319 20008KT 5000 BR FEW002 SCT003 BKN007
BECMG 1310/1311 7000 SCT005 BKN012
BECMG 1311/1312 23010KT SCT012 BKN020
BECMG 1312/1313 SCT015
TEMPO 1312/1319 6000 -SHRA SCT014 BKN020



MET'MAP, la Météo Aéronautique d'un coup d'oeil ! - Copyright ORBIFLY Décembre 2007 - Disclaimer

ORBIFLY MET'MAP TEAM :

Programmation & Développement : Alexandra Zaïnal
Conception & Développement : Baudouin d'Aumeries
Co-Programmation & Développement : Marc-Olivier Méhu
Soutien technique & logistique : Manuel Goepfert

Contact : metmap@orbifly.com




SOURCES & CREDITS :

   NOAA